createdAt,value
2023-01-12T00:00:54.000Z,45.1
2023-01-12T00:02:10.000Z,44.5
2023-01-12T00:03:26.000Z,42.8
2023-01-12T00:04:42.000Z,40.9
2023-01-12T00:05:59.307Z,38.4
2023-01-12T00:07:15.446Z,39.9
2023-01-12T00:08:31.592Z,41.8
2023-01-12T00:09:47.000Z,40.7
2023-01-12T00:11:02.000Z,42.1
2023-01-12T00:12:18.000Z,39.7
2023-01-12T00:13:34.000Z,40.8
2023-01-12T00:14:51.339Z,40.9
2023-01-12T00:16:07.000Z,39.8
2023-01-12T00:17:23.000Z,38.2
2023-01-12T00:18:39.000Z,37.4
2023-01-12T00:19:55.000Z,36.3
2023-01-12T00:21:12.084Z,34.9
2023-01-12T00:22:27.000Z,33
2023-01-12T00:23:44.000Z,31.7
2023-01-12T00:25:00.000Z,31.2
2023-01-12T00:26:16.000Z,30.3
2023-01-12T00:27:31.000Z,29.4
2023-01-12T00:28:47.000Z,28.6
2023-01-12T00:30:03.000Z,27.9
2023-01-12T00:31:20.000Z,27.5
2023-01-12T00:32:36.000Z,27.3
2023-01-12T00:33:52.000Z,26.8
2023-01-12T00:35:08.000Z,26.4
2023-01-12T00:36:24.000Z,25.9
2023-01-12T00:37:41.154Z,26.1
2023-01-12T00:38:56.000Z,25.9
2023-01-12T00:40:13.000Z,25.8
2023-01-12T00:41:29.000Z,25.9
2023-01-12T00:42:45.000Z,25.8
2023-01-12T00:44:00.000Z,26.5
2023-01-12T00:45:16.000Z,27.4
2023-01-12T00:46:32.000Z,27.8
2023-01-12T00:47:48.000Z,28.5
2023-01-12T00:49:05.302Z,28.7
2023-01-12T00:50:21.000Z,28.8
2023-01-12T00:51:37.000Z,28.8
2023-01-12T00:52:53.000Z,29.3
2023-01-12T00:54:09.000Z,29.8
2023-01-12T00:55:26.024Z,30.2
2023-01-12T00:56:41.000Z,30.4
2023-01-12T00:57:58.000Z,30.3
2023-01-12T00:59:14.000Z,30.1
2023-01-12T01:00:29.000Z,30.1
2023-01-12T01:01:45.000Z,30.1
2023-01-12T01:03:01.000Z,29.6
2023-01-12T01:04:17.000Z,29.4
2023-01-12T01:05:33.000Z,29.3
2023-01-12T01:06:50.000Z,29.3
2023-01-12T01:08:06.000Z,29.5
2023-01-12T01:09:22.000Z,29.5
2023-01-12T01:10:38.795Z,29.3
2023-01-12T01:11:54.000Z,29.2
2023-01-12T01:13:10.000Z,29.1
2023-01-12T01:14:26.000Z,28.7
2023-01-12T01:15:43.000Z,28.3
2023-01-12T01:16:58.000Z,27.7
2023-01-12T01:18:14.893Z,27.4
2023-01-12T01:19:30.000Z,26.9
2023-01-12T01:20:46.000Z,26.8
2023-01-12T01:22:02.000Z,26.2
2023-01-12T01:23:19.000Z,26.2
2023-01-12T01:24:35.000Z,26.1
2023-01-12T01:25:51.000Z,26.7
2023-01-12T01:27:07.699Z,27.2
2023-01-12T01:28:23.000Z,27.5
2023-01-12T01:29:39.000Z,27.8
2023-01-12T01:30:55.000Z,27.9
2023-01-12T01:32:12.000Z,28.3
2023-01-12T01:33:27.447Z,28.2
2023-01-12T01:34:43.000Z,29.1
2023-01-12T01:35:59.000Z,29.5
2023-01-12T01:37:15.000Z,30.2
2023-01-12T01:38:31.000Z,31
2023-01-12T01:39:47.000Z,32.1
2023-01-12T01:41:03.000Z,33.1
2023-01-12T01:42:19.000Z,33.9
2023-01-12T01:43:35.000Z,34.3
2023-01-12T01:44:51.777Z,34.5
2023-01-12T01:46:07.000Z,35.7
2023-01-12T01:47:24.063Z,37.2
2023-01-12T01:48:39.000Z,38
2023-01-12T01:49:56.000Z,39
2023-01-12T01:51:12.510Z,39.5
2023-01-12T01:52:28.648Z,40.3
2023-01-12T01:53:44.000Z,41.8
2023-01-12T01:55:00.000Z,42.5
2023-01-12T01:56:16.000Z,42.6
2023-01-12T01:57:32.000Z,43.2
2023-01-12T01:58:48.000Z,44.4
2023-01-12T02:00:04.000Z,44.1
2023-01-12T02:01:20.000Z,44.3
2023-01-12T02:02:36.000Z,43.5
2023-01-12T02:03:52.000Z,42.9
2023-01-12T02:05:09.137Z,41.8
2023-01-12T02:06:25.000Z,40.5
2023-01-12T02:07:41.000Z,39.4
2023-01-12T02:08:57.573Z,39.2
2023-01-12T02:10:13.000Z,39.2
2023-01-12T02:11:29.000Z,39.2
2023-01-12T02:12:45.000Z,38.9
2023-01-12T02:14:00.000Z,39.2
2023-01-12T02:15:17.000Z,39.7
2023-01-12T02:16:33.000Z,40.1
2023-01-12T02:17:49.000Z,40.5
2023-01-12T02:19:05.000Z,41.4
2023-01-12T02:20:21.000Z,42.2
2023-01-12T02:21:37.000Z,42.3
2023-01-12T02:22:54.216Z,43
2023-01-12T02:24:10.000Z,43.8
2023-01-12T02:25:26.000Z,45.4
2023-01-12T02:26:42.000Z,45.8
2023-01-12T02:27:58.000Z,48.6
2023-01-12T02:29:14.000Z,50
2023-01-12T02:30:29.000Z,53.3
2023-01-12T02:31:46.000Z,53.9
2023-01-12T02:33:02.000Z,54
2023-01-12T02:34:18.000Z,54.5
2023-01-12T02:35:34.000Z,54
2023-01-12T02:36:50.000Z,54
2023-01-12T02:38:06.000Z,53.9
2023-01-12T02:39:22.000Z,54.7
2023-01-12T02:40:39.000Z,55.2
2023-01-12T02:41:55.000Z,54.2
2023-01-12T02:43:11.000Z,52.9
2023-01-12T02:44:27.718Z,51.9
2023-01-12T02:45:43.000Z,50.7
2023-01-12T02:46:58.000Z,49.4
2023-01-12T02:48:14.000Z,48.6
2023-01-12T02:49:31.000Z,48
2023-01-12T02:50:47.000Z,46.7
2023-01-12T02:52:03.000Z,44.5
2023-01-12T02:53:19.000Z,43
2023-01-12T02:54:35.000Z,41.1
2023-01-12T02:55:51.000Z,40.6
2023-01-12T02:57:07.000Z,40.9
2023-01-12T02:58:24.354Z,41.6
2023-01-12T02:59:40.000Z,42.3
2023-01-12T03:00:56.000Z,45.2
2023-01-12T03:02:12.796Z,48
2023-01-12T03:03:27.000Z,53.9
2023-01-12T03:04:43.000Z,53.8
2023-01-12T03:06:00.000Z,53.2
2023-01-12T03:07:16.000Z,53.3
2023-01-12T03:08:32.000Z,53.7
2023-01-12T03:09:48.000Z,54.3
2023-01-12T03:11:04.000Z,54.9
2023-01-12T03:12:20.000Z,54
2023-01-12T03:13:36.000Z,53.3
2023-01-12T03:14:53.278Z,51.6
2023-01-12T03:16:09.000Z,49.5
2023-01-12T03:17:25.000Z,48.3
2023-01-12T03:18:41.719Z,46.8
2023-01-12T03:19:56.882Z,45.7
2023-01-12T03:21:12.000Z,44.8
2023-01-12T03:22:28.000Z,43
2023-01-12T03:23:45.000Z,42.5
2023-01-12T03:25:01.000Z,41.4
2023-01-12T03:26:17.000Z,40.9
2023-01-12T03:27:33.000Z,40.3
2023-01-12T03:28:49.000Z,39.7
2023-01-12T03:30:05.000Z,39
2023-01-12T03:31:21.000Z,38.1
2023-01-12T03:32:38.000Z,36.9
2023-01-12T03:33:54.000Z,36.5
2023-01-12T03:35:10.000Z,35.1
2023-01-12T03:36:25.000Z,33.7
2023-01-12T03:37:41.000Z,33.3
2023-01-12T03:38:57.000Z,32.9
2023-01-12T03:40:14.000Z,32.2
2023-01-12T03:41:30.000Z,31.9
2023-01-12T03:42:46.000Z,31
2023-01-12T03:44:02.000Z,30.3
2023-01-12T03:45:18.842Z,29.7
2023-01-12T03:46:34.988Z,29.3
2023-01-12T03:47:50.000Z,28.9
2023-01-12T03:49:07.275Z,28.7
2023-01-12T03:50:23.000Z,28.4
2023-01-12T03:51:39.000Z,28.1
2023-01-12T03:52:54.000Z,27.4
2023-01-12T03:54:10.000Z,26.9
2023-01-12T03:55:26.000Z,26.6
2023-01-12T03:56:42.000Z,26.2
2023-01-12T03:57:59.319Z,25.8
2023-01-12T03:59:15.000Z,25.6
2023-01-12T04:00:31.000Z,25.6
2023-01-12T04:01:47.000Z,25.8
2023-01-12T04:03:03.000Z,26.3
2023-01-12T04:04:19.000Z,27.1
2023-01-12T04:05:35.000Z,27.9
2023-01-12T04:06:52.000Z,29.4
2023-01-12T04:08:08.000Z,30.1
2023-01-12T04:09:23.000Z,30.9
2023-01-12T04:10:39.000Z,31.8
2023-01-12T04:11:55.000Z,32.6
2023-01-12T04:13:11.000Z,33
2023-01-12T04:14:28.244Z,33.1
2023-01-12T04:15:44.000Z,33
2023-01-12T04:17:00.000Z,33.1
2023-01-12T04:18:16.000Z,33.1
2023-01-12T04:19:32.000Z,33.3
2023-01-12T04:20:48.000Z,33.3
2023-01-12T04:22:05.126Z,33.3
2023-01-12T04:23:21.000Z,33.5
2023-01-12T04:24:37.000Z,33.7
2023-01-12T04:25:52.000Z,34
2023-01-12T04:27:08.000Z,33.8
2023-01-12T04:28:24.000Z,34.1
2023-01-12T04:29:40.000Z,34.5
2023-01-12T04:30:56.000Z,34.5
2023-01-12T04:32:13.000Z,34.5
2023-01-12T04:33:29.000Z,34
2023-01-12T04:34:45.633Z,34.6
2023-01-12T04:36:01.000Z,34.7
2023-01-12T04:37:17.921Z,34.5
2023-01-12T04:38:33.000Z,34.5
2023-01-12T04:39:49.000Z,35
2023-01-12T04:41:06.000Z,35.4
2023-01-12T04:42:21.000Z,35.9
2023-01-12T04:43:37.000Z,36.1
2023-01-12T04:44:53.000Z,36.3
2023-01-12T04:46:09.000Z,36.5
2023-01-12T04:47:25.000Z,36.9
2023-01-12T04:48:42.000Z,36.6
2023-01-12T04:49:58.396Z,36.5
2023-01-12T04:51:14.000Z,36.3
2023-01-12T04:52:30.000Z,36.7
2023-01-12T04:53:46.000Z,36.6
2023-01-12T04:55:02.000Z,36.8
2023-01-12T04:56:18.000Z,37
2023-01-12T04:57:35.000Z,36.8
2023-01-12T04:58:50.000Z,36.9
2023-01-12T05:00:06.000Z,37.3
2023-01-12T05:01:22.000Z,37
2023-01-12T05:02:38.000Z,37.1
2023-01-12T05:03:54.000Z,37.2
2023-01-12T05:05:10.000Z,37.4
2023-01-12T05:06:27.000Z,38.3
2023-01-12T05:07:43.468Z,39.7
2023-01-12T05:08:59.610Z,40.6
2023-01-12T05:10:15.000Z,41.5
2023-01-12T05:11:31.000Z,41.9
2023-01-12T05:12:47.000Z,43.1
2023-01-12T05:14:03.000Z,43
2023-01-12T05:15:19.000Z,43.1
2023-01-12T05:16:35.000Z,42.8
2023-01-12T05:17:51.665Z,42.8
2023-01-12T05:19:07.801Z,42.6
2023-01-12T05:20:23.000Z,43
2023-01-12T05:21:39.000Z,43.2
2023-01-12T05:22:56.000Z,43
2023-01-12T05:24:12.398Z,42.2
2023-01-12T05:25:28.000Z,42.5
2023-01-12T05:26:44.000Z,42.4
2023-01-12T05:28:00.000Z,42
2023-01-12T05:29:16.000Z,42.9
2023-01-12T05:30:32.000Z,43.5
2023-01-12T05:31:48.000Z,43.9
2023-01-12T05:33:04.000Z,43.9
2023-01-12T05:34:20.000Z,44.2
2023-01-12T05:35:36.000Z,44.5
2023-01-12T05:36:52.000Z,44.2
2023-01-12T05:38:08.000Z,43.7
2023-01-12T05:39:24.000Z,43.9
2023-01-12T05:40:41.000Z,43.9
2023-01-12T05:41:57.000Z,44
2023-01-12T05:43:13.000Z,43.6
2023-01-12T05:44:29.000Z,43.5
2023-01-12T05:45:45.000Z,43.7
2023-01-12T05:47:01.000Z,44.6
2023-01-12T05:48:16.000Z,45.1
2023-01-12T05:49:33.000Z,45.4
2023-01-12T05:50:49.536Z,45.1
2023-01-12T05:52:05.000Z,45.2
2023-01-12T05:53:21.000Z,45
2023-01-12T05:54:37.000Z,44.4
2023-01-12T05:55:52.000Z,44.2
2023-01-12T05:57:09.000Z,43.8
2023-01-12T05:58:25.000Z,43.3
2023-01-12T05:59:41.000Z,43.1
2023-01-12T06:00:57.712Z,42.6
2023-01-12T06:02:13.868Z,42.5
2023-01-12T06:03:30.022Z,41.8
2023-01-12T06:04:45.000Z,41
2023-01-12T06:06:02.000Z,40.1
2023-01-12T06:07:18.000Z,39.1
2023-01-12T06:08:34.000Z,38.1
2023-01-12T06:09:50.738Z,37.2
2023-01-12T06:11:06.884Z,36.4
2023-01-12T06:12:21.000Z,35.4
2023-01-12T06:13:37.000Z,34
2023-01-12T06:14:54.000Z,33.1
2023-01-12T06:16:10.500Z,32
2023-01-12T06:17:26.000Z,30.8
2023-01-12T06:18:42.789Z,29.3
2023-01-12T06:19:58.000Z,28.3
2023-01-12T06:21:14.000Z,27.6
2023-01-12T06:22:30.000Z,26.6
2023-01-12T06:23:47.000Z,25.4
2023-01-12T06:25:03.000Z,24.5
2023-01-12T06:26:19.672Z,23.6
2023-01-12T06:27:35.000Z,22.9
2023-01-12T06:28:50.000Z,22.6
2023-01-12T06:30:06.000Z,22.1
2023-01-12T06:31:23.000Z,21.2
2023-01-12T06:32:39.000Z,20.6
2023-01-12T06:33:55.000Z,19.7
2023-01-12T06:35:11.000Z,18.9
2023-01-12T06:36:27.878Z,18.4
2023-01-12T06:37:43.000Z,17.9
2023-01-12T06:39:00.147Z,17.5
2023-01-12T06:40:16.000Z,17.3
2023-01-12T06:41:32.000Z,16.9
2023-01-12T06:42:48.000Z,16.4
2023-01-12T06:44:04.746Z,16.1
2023-01-12T06:45:19.903Z,15.8
2023-01-12T06:46:35.000Z,15.4
2023-01-12T06:47:51.000Z,15
2023-01-12T06:49:08.352Z,14.6
2023-01-12T06:50:24.000Z,14.6
2023-01-12T06:51:40.000Z,14.3
2023-01-12T06:52:56.778Z,13.9
2023-01-12T06:54:12.000Z,13.6
2023-01-12T06:55:28.000Z,13
2023-01-12T06:56:44.000Z,12.7
2023-01-12T06:58:01.366Z,12.3
2023-01-12T06:59:17.000Z,11.9
2023-01-12T07:00:33.000Z,11.7
2023-01-12T07:01:48.000Z,11.3
2023-01-12T07:03:04.000Z,11.1
2023-01-12T07:04:20.000Z,11.1
2023-01-12T07:05:37.000Z,10.7
2023-01-12T07:06:53.000Z,10.6
2023-01-12T07:08:09.000Z,10.5
2023-01-12T07:09:25.000Z,10.2
2023-01-12T07:10:41.000Z,9.9
2023-01-12T07:11:58.002Z,9.9
2023-01-12T07:13:13.000Z,9.6
2023-01-12T07:14:30.287Z,9.5
2023-01-12T07:15:46.000Z,9.4
2023-01-12T07:17:02.000Z,9.2
2023-01-12T07:18:17.000Z,9
2023-01-12T07:19:33.000Z,8.7
2023-01-12T07:20:49.000Z,8.3
2023-01-12T07:22:05.000Z,8.3
2023-01-12T07:23:22.000Z,8.2
2023-01-12T07:24:38.000Z,8.1
2023-01-12T07:25:54.000Z,7.9
2023-01-12T07:27:10.000Z,7.4
2023-01-12T07:28:26.000Z,7.4
2023-01-12T07:29:42.000Z,7.1
2023-01-12T07:30:58.000Z,7.3
2023-01-12T07:32:15.371Z,7.1
2023-01-12T07:33:31.000Z,7.1
2023-01-12T07:34:46.000Z,6.9
2023-01-12T07:36:02.823Z,6.9
2023-01-12T07:37:18.000Z,7
2023-01-12T07:38:34.000Z,7.1
2023-01-12T07:39:51.264Z,6.9
2023-01-12T07:41:07.405Z,6.9
2023-01-12T07:42:23.000Z,6.8
2023-01-12T07:43:39.000Z,6.5
2023-01-12T07:44:55.000Z,6.7
2023-01-12T07:46:11.000Z,6.5
2023-01-12T07:47:27.000Z,6.2
2023-01-12T07:48:44.000Z,6.3
2023-01-12T07:50:00.000Z,6.3
2023-01-12T07:51:15.000Z,6.2
2023-01-12T07:52:31.744Z,6
2023-01-12T07:53:47.000Z,5.8
2023-01-12T07:55:03.000Z,5.7
2023-01-12T07:56:19.000Z,5.7
2023-01-12T07:57:36.000Z,5.6
2023-01-12T07:58:52.000Z,5.5
2023-01-12T08:00:08.000Z,5.7
2023-01-12T08:01:24.000Z,5.9
2023-01-12T08:02:40.000Z,5.9
2023-01-12T08:03:56.000Z,6
2023-01-12T08:05:12.000Z,6.3
2023-01-12T08:06:29.000Z,6.3
2023-01-12T08:07:44.000Z,6.4
2023-01-12T08:09:00.000Z,6.5
2023-01-12T08:10:16.816Z,6.6
2023-01-12T08:11:32.000Z,6.5
2023-01-12T08:12:48.000Z,6.7
2023-01-12T08:14:05.000Z,6.9
2023-01-12T08:15:21.000Z,6.9
2023-01-12T08:16:37.000Z,7.1
2023-01-12T08:17:53.000Z,7.2
2023-01-12T08:19:09.000Z,7
2023-01-12T08:20:25.000Z,7.2
2023-01-12T08:21:41.000Z,7.3
2023-01-12T08:22:58.000Z,7.3
2023-01-12T08:24:13.000Z,7.2
2023-01-12T08:25:29.000Z,7.2
2023-01-12T08:26:45.000Z,7
2023-01-12T08:28:01.000Z,6.9
2023-01-12T08:29:18.047Z,6.8
2023-01-12T08:30:33.000Z,6.5
2023-01-12T08:31:50.000Z,6.5
2023-01-12T08:33:06.000Z,6.3
2023-01-12T08:34:22.000Z,6.3
2023-01-12T08:35:38.000Z,6.1
2023-01-12T08:36:54.000Z,6
2023-01-12T08:38:11.080Z,5.8
2023-01-12T08:39:26.000Z,5.9
2023-01-12T08:40:42.000Z,5.8
2023-01-12T08:41:58.521Z,5.8
2023-01-12T08:43:14.669Z,5.5
2023-01-12T08:44:30.000Z,5.3
2023-01-12T08:45:46.000Z,5.3
2023-01-12T08:47:03.114Z,5.3
2023-01-12T08:48:19.000Z,5.1
2023-01-12T08:49:35.000Z,5.1
2023-01-12T08:50:51.000Z,4.9
2023-01-12T08:52:07.000Z,5
2023-01-12T08:53:23.841Z,5.1
2023-01-12T08:54:39.000Z,5.1
2023-01-12T08:55:55.000Z,5.1
2023-01-12T08:57:11.000Z,5.1
2023-01-12T08:58:27.000Z,5.1
2023-01-12T08:59:43.000Z,5.1
2023-01-12T09:00:59.750Z,5.1
2023-01-12T09:02:15.000Z,5.1
2023-01-12T09:03:32.066Z,5
2023-01-12T09:04:47.000Z,4.9
2023-01-12T09:06:04.000Z,5
2023-01-12T09:07:20.470Z,5.3
2023-01-12T09:08:36.000Z,5.1
2023-01-12T09:09:52.000Z,5.1
2023-01-12T09:11:08.914Z,5.1
2023-01-12T09:12:24.000Z,5.1
2023-01-12T09:13:39.000Z,5
2023-01-12T09:14:56.000Z,4.9
2023-01-12T09:16:12.000Z,5
2023-01-12T09:17:28.000Z,5
2023-01-12T09:18:44.000Z,5
2023-01-12T09:20:00.957Z,5
2023-01-12T09:21:16.000Z,5.1
2023-01-12T09:22:33.000Z,5.1
2023-01-12T09:23:49.000Z,5.2
2023-01-12T09:25:05.000Z,5.3
2023-01-12T09:26:21.000Z,5.2
2023-01-12T09:27:37.000Z,5.2
2023-01-12T09:28:53.000Z,5.1
2023-01-12T09:30:08.000Z,4.9
2023-01-12T09:31:25.000Z,4.7
2023-01-12T09:32:41.000Z,4.6
2023-01-12T09:33:57.000Z,4.3
2023-01-12T09:35:13.751Z,4.1
2023-01-12T09:36:29.886Z,4.1
2023-01-12T09:37:45.000Z,3.9
2023-01-12T09:39:01.000Z,3.4
2023-01-12T09:40:18.000Z,3.4
2023-01-12T09:41:34.467Z,3.4
2023-01-12T09:42:50.000Z,3.3
2023-01-12T09:44:06.000Z,2.9
2023-01-12T09:45:22.908Z,2.9
2023-01-12T09:46:37.000Z,2
2023-01-12T09:47:53.000Z,2.5
2023-01-12T09:49:10.382Z,2.6
2023-01-12T09:50:26.000Z,2.6
2023-01-12T09:51:42.000Z,2.4
2023-01-12T09:52:58.000Z,1.8
2023-01-12T09:54:14.000Z,2
2023-01-12T09:55:30.000Z,1.8
2023-01-12T09:56:47.000Z,1.5
2023-01-12T09:58:03.000Z,1.6
2023-01-12T09:59:19.000Z,1.6
2023-01-12T10:00:35.000Z,1.9
2023-01-12T10:01:51.000Z,2.1
2023-01-12T10:03:06.000Z,2.3
2023-01-12T10:04:23.143Z,2.4
2023-01-12T10:05:39.000Z,2.6
2023-01-12T10:06:55.439Z,2.5
2023-01-12T10:08:11.584Z,2.3
2023-01-12T10:09:27.000Z,1.8
2023-01-12T10:10:42.000Z,1.8
2023-01-12T10:11:58.000Z,1.6
2023-01-12T10:13:14.000Z,1.5
2023-01-12T10:14:31.000Z,0.9
2023-01-12T10:15:47.000Z,0.9
2023-01-12T10:17:03.000Z,0.6
2023-01-12T10:18:19.780Z,0.4
2023-01-12T10:19:35.000Z,0.5
2023-01-12T10:20:51.000Z,0.4
2023-01-12T10:22:08.224Z,0.2
2023-01-12T10:23:24.000Z,0
2023-01-12T10:24:40.000Z,0
2023-01-12T10:25:56.000Z,0
2023-01-12T10:27:11.000Z,0
2023-01-12T10:28:27.000Z,0
2023-01-12T10:29:44.125Z,0
2023-01-12T10:31:00.000Z,0
2023-01-12T10:32:16.000Z,0
2023-01-12T10:33:32.000Z,0
2023-01-12T10:34:48.000Z,0
2023-01-12T10:36:04.000Z,0
2023-01-12T10:37:21.024Z,0
2023-01-12T10:38:36.000Z,0
2023-01-12T10:39:53.000Z,0
2023-01-12T10:41:09.000Z,0
2023-01-12T10:42:25.603Z,0
2023-01-12T10:43:40.754Z,0
2023-01-12T10:44:56.000Z,0
2023-01-12T10:46:12.000Z,0
2023-01-12T10:47:28.000Z,0
2023-01-12T10:48:45.000Z,0
2023-01-12T10:50:01.000Z,0
2023-01-12T10:51:17.000Z,0
2023-01-12T10:52:33.000Z,0
2023-01-12T10:53:49.000Z,0
2023-01-12T10:55:06.075Z,0
2023-01-12T10:56:21.000Z,0
2023-01-12T10:57:38.376Z,0
2023-01-12T10:58:54.000Z,0
2023-01-12T11:00:09.000Z,0
2023-01-12T11:01:25.847Z,0
2023-01-12T11:02:41.000Z,0
2023-01-12T11:03:57.000Z,0
2023-01-12T11:05:14.000Z,0
2023-01-12T11:06:30.000Z,0
2023-01-12T11:07:46.000Z,0
2023-01-12T11:09:02.000Z,0.2
2023-01-12T11:10:18.000Z,0.5
2023-01-12T11:11:34.000Z,0.6
2023-01-12T11:12:50.000Z,0.7
2023-01-12T11:14:07.301Z,0.9
2023-01-12T11:15:23.532Z,1.1
2023-01-12T11:16:38.000Z,1.7
2023-01-12T11:17:54.000Z,1.6
2023-01-12T11:19:10.000Z,1.6
2023-01-12T11:20:27.046Z,1.7
2023-01-12T11:21:42.000Z,1.6
2023-01-12T11:22:59.000Z,1.5
2023-01-12T11:24:15.000Z,1.6
2023-01-12T11:25:31.000Z,1.6
2023-01-12T11:26:47.777Z,1.6
2023-01-12T11:28:03.000Z,1.9
2023-01-12T11:29:19.000Z,1.9
2023-01-12T11:30:35.000Z,2.3
2023-01-12T11:31:52.000Z,2.1
2023-01-12T11:33:07.000Z,2.1
2023-01-12T11:34:23.000Z,2.1
2023-01-12T11:35:39.000Z,2.1
2023-01-12T11:36:55.000Z,2.5
2023-01-12T11:38:11.000Z,3.4
2023-01-12T11:39:28.000Z,3.6
2023-01-12T11:40:44.000Z,4.4
2023-01-12T11:42:00.536Z,5.1
2023-01-12T11:43:16.683Z,5.6
2023-01-12T11:44:32.000Z,6
2023-01-12T11:45:48.973Z,6.1
2023-01-12T11:47:04.000Z,6.3
2023-01-12T11:48:21.000Z,6.8
2023-01-12T11:49:36.000Z,7.6
2023-01-12T11:50:52.000Z,8.5
2023-01-12T11:52:08.000Z,8.4
2023-01-12T11:53:24.000Z,8.4
2023-01-12T11:54:40.000Z,8.2
2023-01-12T11:55:57.158Z,8.1
2023-01-12T11:57:13.000Z,8.2
2023-01-12T11:58:29.000Z,8.8
2023-01-12T11:59:45.000Z,9.6
2023-01-12T12:01:01.734Z,10.3
2023-01-12T12:02:17.000Z,11
2023-01-12T12:03:33.000Z,11.6
2023-01-12T12:04:49.000Z,12.6
2023-01-12T12:06:05.336Z,14.2
2023-01-12T12:07:21.000Z,15
2023-01-12T12:08:37.000Z,15.7
2023-01-12T12:09:53.775Z,15.7
2023-01-12T12:11:09.924Z,15.7
2023-01-12T12:12:26.054Z,15.7
2023-01-12T12:13:41.000Z,16
2023-01-12T12:14:58.000Z,16.1
2023-01-12T12:16:14.000Z,15.4
2023-01-12T12:17:30.000Z,15.6
2023-01-12T12:18:46.000Z,16
2023-01-12T12:20:02.926Z,16
2023-01-12T12:21:18.000Z,17.3
2023-01-12T12:22:34.233Z,18.1
2023-01-12T12:23:50.000Z,18
2023-01-12T12:25:06.000Z,19.3
2023-01-12T12:26:22.000Z,19.5
2023-01-12T12:27:38.000Z,21.1
2023-01-12T12:28:54.000Z,22.3
2023-01-12T12:30:10.000Z,23.5
2023-01-12T12:31:27.277Z,26.4
2023-01-12T12:32:43.000Z,27.8
2023-01-12T12:33:59.000Z,28
2023-01-12T12:35:15.000Z,26.7
2023-01-12T12:36:31.832Z,26.1
2023-01-12T12:37:47.978Z,25.8
2023-01-12T12:39:03.149Z,25.8
2023-01-12T12:40:19.000Z,25.8
2023-01-12T12:41:35.000Z,25.8
2023-01-12T12:42:51.000Z,27.6
2023-01-12T12:44:07.000Z,29.1
2023-01-12T12:45:23.000Z,29.7
2023-01-12T12:46:39.000Z,30.4
2023-01-12T12:47:55.000Z,30.4
2023-01-12T12:49:12.000Z,30.8
2023-01-12T12:50:28.000Z,30.3
2023-01-12T12:51:44.597Z,30.2
2023-01-12T12:53:00.742Z,30.1
2023-01-12T12:54:16.000Z,29.4
2023-01-12T12:55:32.045Z,28.9
2023-01-12T12:56:47.000Z,27.5
2023-01-12T12:58:04.342Z,26.5
2023-01-12T12:59:20.489Z,26.8
2023-01-12T13:00:36.000Z,26.3
2023-01-12T13:01:52.000Z,27
2023-01-12T13:03:08.000Z,26.4
2023-01-12T13:04:24.000Z,27.9
2023-01-12T13:05:40.000Z,28.3
2023-01-12T13:06:57.000Z,28.2
2023-01-12T13:08:13.000Z,29.2
2023-01-12T13:09:29.000Z,28.5
2023-01-12T13:10:45.000Z,28.3
2023-01-12T13:12:00.000Z,27.7
2023-01-12T13:13:16.000Z,28.2
2023-01-12T13:14:33.000Z,28
2023-01-12T13:15:49.000Z,28.2
2023-01-12T13:17:05.000Z,28.4
2023-01-12T13:18:21.692Z,27.7
2023-01-12T13:19:37.833Z,27.1
2023-01-12T13:20:53.000Z,26.9
2023-01-12T13:22:09.000Z,27.2
2023-01-12T13:23:26.000Z,26.9
2023-01-12T13:24:42.000Z,27
2023-01-12T13:25:58.581Z,26.6
2023-01-12T13:27:14.000Z,26.3
2023-01-12T13:28:29.000Z,26.1
2023-01-12T13:29:45.000Z,25.3
2023-01-12T13:31:01.000Z,24.4
2023-01-12T13:32:18.000Z,23.9
2023-01-12T13:33:34.000Z,23.1
2023-01-12T13:34:50.000Z,22.5
2023-01-12T13:36:06.000Z,21.8
2023-01-12T13:37:22.000Z,21.1
2023-01-12T13:38:38.000Z,20.4
2023-01-12T13:39:55.198Z,19.6
2023-01-12T13:41:11.000Z,19.2
2023-01-12T13:42:27.000Z,18.8
2023-01-12T13:43:43.613Z,18.3
2023-01-12T13:44:58.790Z,18.2
2023-01-12T13:46:14.000Z,18.3
2023-01-12T13:47:30.000Z,18.3
2023-01-12T13:48:46.000Z,18.1
2023-01-12T13:50:03.000Z,18.1
2023-01-12T13:51:19.505Z,18
2023-01-12T13:52:35.000Z,18
2023-01-12T13:53:51.000Z,18.9
2023-01-12T13:55:07.000Z,19.4
2023-01-12T13:56:23.000Z,20
2023-01-12T13:57:40.232Z,20.7
2023-01-12T13:58:56.000Z,20.9
2023-01-12T14:00:12.000Z,21.7
2023-01-12T14:01:27.000Z,23
2023-01-12T14:02:43.000Z,23.7
2023-01-12T14:03:59.000Z,24.6
2023-01-12T14:05:15.000Z,24.8
2023-01-12T14:06:32.000Z,25.8
2023-01-12T14:07:48.406Z,26.2
2023-01-12T14:09:04.553Z,26.9
2023-01-12T14:10:20.000Z,27.2
2023-01-12T14:11:36.000Z,27.5
2023-01-12T14:12:52.000Z,27.5
2023-01-12T14:14:09.149Z,28.7
2023-01-12T14:15:25.282Z,29.7
2023-01-12T14:16:41.448Z,29.4
2023-01-12T14:17:56.000Z,29.1
2023-01-12T14:19:12.000Z,28.6
2023-01-12T14:20:28.886Z,28.9
2023-01-12T14:21:44.000Z,28.9
2023-01-12T14:23:00.000Z,29.3
2023-01-12T14:24:17.000Z,29.1
2023-01-12T14:25:32.000Z,29.2
2023-01-12T14:26:48.000Z,29.7
2023-01-12T14:28:04.000Z,29.2
2023-01-12T14:29:20.000Z,28.7
2023-01-12T14:30:37.086Z,29
2023-01-12T14:31:52.000Z,29.5
2023-01-12T14:33:09.000Z,29.7
2023-01-12T14:34:25.000Z,29.5
2023-01-12T14:35:41.000Z,29.7
2023-01-12T14:36:57.811Z,29.4
2023-01-12T14:38:13.000Z,29.1
2023-01-12T14:39:29.000Z,28.9
2023-01-12T14:40:46.246Z,29
2023-01-12T14:42:01.395Z,29.4
2023-01-12T14:43:17.000Z,29.8
2023-01-12T14:44:33.000Z,29.7
2023-01-12T14:45:49.000Z,30.3
2023-01-12T14:47:05.000Z,30.1
2023-01-12T14:48:21.000Z,30.2
2023-01-12T14:49:38.272Z,29.9
2023-01-12T14:50:54.000Z,29.2
2023-01-12T14:52:10.000Z,28.8
2023-01-12T14:53:26.000Z,27.8
2023-01-12T14:54:42.000Z,26.5
2023-01-12T14:55:58.000Z,26.1
2023-01-12T14:57:14.000Z,25
2023-01-12T14:58:30.000Z,24.3
2023-01-12T14:59:46.000Z,23
2023-01-12T15:01:02.000Z,22.3
2023-01-12T15:02:18.000Z,21.5
2023-01-12T15:03:34.000Z,20.9
2023-01-12T15:04:50.000Z,20.4
2023-01-12T15:06:06.000Z,20.1
2023-01-12T15:07:23.000Z,19.4
2023-01-12T15:08:39.688Z,18.8
2023-01-12T15:09:55.617Z,18
2023-01-12T15:11:11.000Z,17.3
2023-01-12T15:12:27.000Z,16.8
2023-01-12T15:13:43.000Z,16.2
2023-01-12T15:14:58.000Z,15.9
2023-01-12T15:16:15.000Z,15.4
2023-01-12T15:17:31.000Z,14.9
2023-01-12T15:18:47.000Z,14.5
2023-01-12T15:20:03.000Z,14
2023-01-12T15:21:19.000Z,13.4
2023-01-12T15:22:35.000Z,12.8
2023-01-12T15:23:52.000Z,12.3
2023-01-12T15:25:08.000Z,11.8
2023-01-12T15:26:24.543Z,11.5
2023-01-12T15:27:40.000Z,11.5
2023-01-12T15:28:56.000Z,11.3
2023-01-12T15:30:12.000Z,11.1
2023-01-12T15:31:28.136Z,10.7
2023-01-12T15:32:44.000Z,10.5
2023-01-12T15:34:00.000Z,10.3
2023-01-12T15:35:16.000Z,10.3
2023-01-12T15:36:32.000Z,10.3
2023-01-12T15:37:48.000Z,10.2
2023-01-12T15:39:04.000Z,10.3
2023-01-12T15:40:20.000Z,10.2
2023-01-12T15:41:37.000Z,10.2
2023-01-12T15:42:53.450Z,10.2
2023-01-12T15:44:09.000Z,10.4
2023-01-12T15:45:25.000Z,10.3
2023-01-12T15:46:41.000Z,10.5
2023-01-12T15:47:56.000Z,10.5
2023-01-12T15:49:12.000Z,10.7
2023-01-12T15:50:29.000Z,12
2023-01-12T15:51:45.000Z,13.3
2023-01-12T15:53:01.000Z,13.7
2023-01-12T15:54:17.000Z,14.3
2023-01-12T15:55:33.000Z,15.5
2023-01-12T15:56:49.000Z,16.1
2023-01-12T15:58:05.000Z,17.3
2023-01-12T15:59:22.000Z,18.5
2023-01-12T16:00:38.486Z,20.5
2023-01-12T16:01:54.000Z,23.4
2023-01-12T16:03:10.000Z,26.4
2023-01-12T16:04:25.000Z,29.6
2023-01-12T16:05:41.000Z,32.5
2023-01-12T16:06:58.000Z,34.3
2023-01-12T16:08:14.000Z,35.5
2023-01-12T16:09:30.524Z,36.7
2023-01-12T16:10:46.000Z,38.3
2023-01-12T16:12:02.000Z,38.8
2023-01-12T16:13:18.000Z,39.5
2023-01-12T16:14:34.000Z,39.9
2023-01-12T16:15:51.262Z,39.6
2023-01-12T16:17:07.407Z,39.3
2023-01-12T16:18:23.000Z,40.1
2023-01-12T16:19:39.000Z,41.5
2023-01-12T16:20:54.857Z,41.4
2023-01-12T16:22:10.000Z,39.4
2023-01-12T16:23:26.000Z,38.1
2023-01-12T16:24:43.000Z,37.3
2023-01-12T16:25:59.000Z,36.2
2023-01-12T16:27:15.598Z,35.5
2023-01-12T16:28:31.000Z,34.9
2023-01-12T16:29:47.000Z,34
2023-01-12T16:31:03.000Z,34
2023-01-12T16:32:19.000Z,33.6
2023-01-12T16:33:36.000Z,33.5
2023-01-12T16:34:52.000Z,34.6
2023-01-12T16:36:08.000Z,34.7
2023-01-12T16:37:23.000Z,37.2
2023-01-12T16:38:39.000Z,38.2
2023-01-12T16:39:55.000Z,36.1
2023-01-12T16:41:12.193Z,33.6
2023-01-12T16:42:28.335Z,33.2
2023-01-12T16:43:44.000Z,32.7
2023-01-12T16:45:00.000Z,32.8
2023-01-12T16:46:16.000Z,32.8
2023-01-12T16:47:32.000Z,32.6
2023-01-12T16:48:48.000Z,32.2
2023-01-12T16:50:04.000Z,31.9
2023-01-12T16:51:21.000Z,31.5
2023-01-12T16:52:37.000Z,30.9
2023-01-12T16:53:52.000Z,30.4
2023-01-12T16:55:08.000Z,30
2023-01-12T16:56:24.000Z,29.5
2023-01-12T16:57:40.000Z,29.1
2023-01-12T16:58:57.000Z,28.8
2023-01-12T17:00:13.000Z,28.3
2023-01-12T17:01:29.000Z,28
2023-01-12T17:02:45.000Z,28.1
2023-01-12T17:04:01.000Z,28
2023-01-12T17:05:17.000Z,28.1
2023-01-12T17:06:34.115Z,28
2023-01-12T17:07:50.000Z,27.8
2023-01-12T17:09:06.000Z,27.8
2023-01-12T17:10:21.000Z,27.8
2023-01-12T17:11:37.000Z,27.8